sensor_id;sensor_type;location;lat;lon;timestamp;P1;durP1;ratioP1;P2;durP2;ratioP2
16403;SDS011;8311;50.158;8.642;2023-09-08T00:02:28;11.85;;;5.13;;
16403;SDS011;8311;50.158;8.642;2023-09-08T00:05:21;8.13;;;5.35;;
16403;SDS011;8311;50.158;8.642;2023-09-08T00:08:14;7.95;;;5.10;;
16403;SDS011;8311;50.158;8.642;2023-09-08T00:11:07;9.07;;;5.03;;
16403;SDS011;8311;50.158;8.642;2023-09-08T00:14:00;6.85;;;4.82;;
16403;SDS011;8311;50.158;8.642;2023-09-08T00:16:55;10.13;;;5.28;;
16403;SDS011;8311;50.158;8.642;2023-09-08T00:19:50;6.57;;;5.15;;
16403;SDS011;8311;50.158;8.642;2023-09-08T00:22:43;8.45;;;5.47;;
16403;SDS011;8311;50.158;8.642;2023-09-08T00:25:36;7.95;;;5.07;;
16403;SDS011;8311;50.158;8.642;2023-09-08T00:28:29;5.68;;;4.45;;
16403;SDS011;8311;50.158;8.642;2023-09-08T00:31:24;11.30;;;5.07;;
16403;SDS011;8311;50.158;8.642;2023-09-08T00:34:17;7.43;;;5.47;;
16403;SDS011;8311;50.158;8.642;2023-09-08T00:37:11;7.43;;;4.95;;
16403;SDS011;8311;50.158;8.642;2023-09-08T00:40:05;7.35;;;5.28;;
16403;SDS011;8311;50.158;8.642;2023-09-08T00:42:59;6.43;;;4.85;;
16403;SDS011;8311;50.158;8.642;2023-09-08T00:45:53;6.47;;;4.95;;
16403;SDS011;8311;50.158;8.642;2023-09-08T00:48:50;7.93;;;4.40;;
16403;SDS011;8311;50.158;8.642;2023-09-08T00:51:43;8.23;;;4.72;;
16403;SDS011;8311;50.158;8.642;2023-09-08T00:54:39;6.05;;;4.85;;
16403;SDS011;8311;50.158;8.642;2023-09-08T00:57:32;10.32;;;5.32;;
16403;SDS011;8311;50.158;8.642;2023-09-08T01:00:25;7.97;;;4.72;;
16403;SDS011;8311;50.158;8.642;2023-09-08T01:03:18;8.05;;;5.32;;
16403;SDS011;8311;50.158;8.642;2023-09-08T01:06:12;8.82;;;4.60;;
16403;SDS011;8311;50.158;8.642;2023-09-08T01:09:06;7.05;;;4.45;;
16403;SDS011;8311;50.158;8.642;2023-09-08T01:12:00;8.10;;;5.30;;
16403;SDS011;8311;50.158;8.642;2023-09-08T01:14:55;8.25;;;5.43;;
16403;SDS011;8311;50.158;8.642;2023-09-08T01:17:48;7.97;;;5.40;;
16403;SDS011;8311;50.158;8.642;2023-09-08T01:20:46;8.18;;;4.97;;
16403;SDS011;8311;50.158;8.642;2023-09-08T01:23:57;7.35;;;4.93;;
16403;SDS011;8311;50.158;8.642;2023-09-08T01:27:03;6.60;;;5.00;;
16403;SDS011;8311;50.158;8.642;2023-09-08T01:29:58;9.30;;;5.07;;
16403;SDS011;8311;50.158;8.642;2023-09-08T01:32:52;8.55;;;5.03;;
16403;SDS011;8311;50.158;8.642;2023-09-08T01:35:46;6.00;;;4.38;;
16403;SDS011;8311;50.158;8.642;2023-09-08T01:38:39;6.43;;;4.75;;
16403;SDS011;8311;50.158;8.642;2023-09-08T01:41:34;7.90;;;5.00;;
16403;SDS011;8311;50.158;8.642;2023-09-08T01:44:28;8.73;;;4.93;;
16403;SDS011;8311;50.158;8.642;2023-09-08T01:47:21;7.72;;;4.95;;
16403;SDS011;8311;50.158;8.642;2023-09-08T01:50:14;6.00;;;4.20;;
16403;SDS011;8311;50.158;8.642;2023-09-08T01:53:12;9.13;;;5.15;;
16403;SDS011;8311;50.158;8.642;2023-09-08T01:56:05;11.57;;;4.80;;
16403;SDS011;8311;50.158;8.642;2023-09-08T01:58:58;6.93;;;4.70;;
16403;SDS011;8311;50.158;8.642;2023-09-08T02:01:52;9.93;;;4.88;;
16403;SDS011;8311;50.158;8.642;2023-09-08T02:04:45;8.00;;;5.00;;
16403;SDS011;8311;50.158;8.642;2023-09-08T02:07:39;11.23;;;5.30;;
16403;SDS011;8311;50.158;8.642;2023-09-08T02:10:34;9.80;;;5.00;;
16403;SDS011;8311;50.158;8.642;2023-09-08T02:13:28;6.88;;;5.05;;
16403;SDS011;8311;50.158;8.642;2023-09-08T02:16:21;6.45;;;4.75;;
16403;SDS011;8311;50.158;8.642;2023-09-08T02:19:15;7.78;;;4.75;;
16403;SDS011;8311;50.158;8.642;2023-09-08T02:22:09;6.88;;;4.38;;
16403;SDS011;8311;50.158;8.642;2023-09-08T02:25:02;8.68;;;5.35;;
16403;SDS011;8311;50.158;8.642;2023-09-08T02:27:55;7.68;;;5.53;;
16403;SDS011;8311;50.158;8.642;2023-09-08T02:30:48;6.97;;;4.82;;
16403;SDS011;8311;50.158;8.642;2023-09-08T02:33:42;6.63;;;4.95;;
16403;SDS011;8311;50.158;8.642;2023-09-08T02:36:37;9.45;;;5.57;;
16403;SDS011;8311;50.158;8.642;2023-09-08T02:39:30;9.73;;;5.30;;
16403;SDS011;8311;50.158;8.642;2023-09-08T02:42:24;5.40;;;3.67;;
16403;SDS011;8311;50.158;8.642;2023-09-08T02:45:18;8.40;;;4.90;;
16403;SDS011;8311;50.158;8.642;2023-09-08T02:48:10;8.38;;;5.13;;
16403;SDS011;8311;50.158;8.642;2023-09-08T02:51:03;9.77;;;4.88;;
16403;SDS011;8311;50.158;8.642;2023-09-08T02:53:57;6.25;;;4.63;;
16403;SDS011;8311;50.158;8.642;2023-09-08T02:56:50;8.13;;;5.13;;
16403;SDS011;8311;50.158;8.642;2023-09-08T02:59:48;8.20;;;5.15;;
16403;SDS011;8311;50.158;8.642;2023-09-08T03:02:42;8.40;;;4.88;;
16403;SDS011;8311;50.158;8.642;2023-09-08T03:05:35;9.20;;;5.05;;
16403;SDS011;8311;50.158;8.642;2023-09-08T03:08:29;7.15;;;4.80;;
16403;SDS011;8311;50.158;8.642;2023-09-08T03:11:23;6.70;;;4.70;;
16403;SDS011;8311;50.158;8.642;2023-09-08T03:14:16;7.22;;;4.47;;
16403;SDS011;8311;50.158;8.642;2023-09-08T03:17:09;8.88;;;5.03;;
16403;SDS011;8311;50.158;8.642;2023-09-08T03:20:03;7.75;;;5.28;;
16403;SDS011;8311;50.158;8.642;2023-09-08T03:22:59;7.53;;;5.50;;
16403;SDS011;8311;50.158;8.642;2023-09-08T03:25:52;6.97;;;4.90;;
16403;SDS011;8311;50.158;8.642;2023-09-08T03:28:46;9.95;;;4.93;;
16403;SDS011;8311;50.158;8.642;2023-09-08T03:31:39;7.13;;;4.93;;
16403;SDS011;8311;50.158;8.642;2023-09-08T03:34:33;7.85;;;4.90;;
16403;SDS011;8311;50.158;8.642;2023-09-08T03:37:27;7.22;;;5.25;;
16403;SDS011;8311;50.158;8.642;2023-09-08T03:40:20;7.70;;;4.50;;
16403;SDS011;8311;50.158;8.642;2023-09-08T03:43:13;7.25;;;4.90;;
16403;SDS011;8311;50.158;8.642;2023-09-08T03:46:08;7.93;;;4.75;;
16403;SDS011;8311;50.158;8.642;2023-09-08T03:49:01;6.25;;;4.50;;
16403;SDS011;8311;50.158;8.642;2023-09-08T03:51:54;6.95;;;4.60;;
16403;SDS011;8311;50.158;8.642;2023-09-08T03:54:49;6.78;;;4.68;;
16403;SDS011;8311;50.158;8.642;2023-09-08T03:57:43;6.03;;;4.38;;
16403;SDS011;8311;50.158;8.642;2023-09-08T04:00:36;7.75;;;4.90;;
16403;SDS011;8311;50.158;8.642;2023-09-08T04:03:31;7.53;;;5.00;;
16403;SDS011;8311;50.158;8.642;2023-09-08T04:06:25;8.07;;;4.70;;
16403;SDS011;8311;50.158;8.642;2023-09-08T04:09:19;7.38;;;5.03;;
16403;SDS011;8311;50.158;8.642;2023-09-08T04:12:12;7.85;;;4.80;;
16403;SDS011;8311;50.158;8.642;2023-09-08T04:15:06;6.57;;;4.72;;
16403;SDS011;8311;50.158;8.642;2023-09-08T04:17:59;10.68;;;5.35;;
16403;SDS011;8311;50.158;8.642;2023-09-08T04:20:55;7.80;;;5.30;;
16403;SDS011;8311;50.158;8.642;2023-09-08T04:23:48;7.70;;;5.68;;
16403;SDS011;8311;50.158;8.642;2023-09-08T04:26:41;7.95;;;5.35;;
16403;SDS011;8311;50.158;8.642;2023-09-08T04:29:34;9.60;;;5.45;;
16403;SDS011;8311;50.158;8.642;2023-09-08T04:32:27;8.93;;;5.05;;
16403;SDS011;8311;50.158;8.642;2023-09-08T04:35:21;7.28;;;4.85;;
16403;SDS011;8311;50.158;8.642;2023-09-08T04:38:16;6.85;;;5.03;;
16403;SDS011;8311;50.158;8.642;2023-09-08T04:41:09;9.60;;;5.25;;
16403;SDS011;8311;50.158;8.642;2023-09-08T04:44:02;7.78;;;4.72;;
16403;SDS011;8311;50.158;8.642;2023-09-08T04:46:56;9.55;;;4.93;;
16403;SDS011;8311;50.158;8.642;2023-09-08T04:49:49;9.32;;;5.25;;
16403;SDS011;8311;50.158;8.642;2023-09-08T04:52:42;9.20;;;4.90;;
16403;SDS011;8311;50.158;8.642;2023-09-08T04:55:38;8.75;;;5.38;;
16403;SDS011;8311;50.158;8.642;2023-09-08T04:58:32;7.28;;;5.07;;
16403;SDS011;8311;50.158;8.642;2023-09-08T05:01:26;7.22;;;5.03;;
16403;SDS011;8311;50.158;8.642;2023-09-08T05:04:21;7.13;;;5.00;;
16403;SDS011;8311;50.158;8.642;2023-09-08T05:07:14;7.90;;;5.30;;
16403;SDS011;8311;50.158;8.642;2023-09-08T05:10:08;8.68;;;5.75;;
16403;SDS011;8311;50.158;8.642;2023-09-08T05:13:03;8.98;;;5.35;;
16403;SDS011;8311;50.158;8.642;2023-09-08T05:16:04;7.88;;;5.22;;
16403;SDS011;8311;50.158;8.642;2023-09-08T05:19:04;7.63;;;5.07;;
16403;SDS011;8311;50.158;8.642;2023-09-08T05:21:58;9.18;;;4.70;;
16403;SDS011;8311;50.158;8.642;2023-09-08T05:24:51;6.80;;;4.40;;
16403;SDS011;8311;50.158;8.642;2023-09-08T05:27:44;8.00;;;4.80;;
16403;SDS011;8311;50.158;8.642;2023-09-08T05:30:39;9.10;;;5.22;;
16403;SDS011;8311;50.158;8.642;2023-09-08T05:33:33;7.90;;;5.10;;
16403;SDS011;8311;50.158;8.642;2023-09-08T05:36:25;10.07;;;5.40;;
16403;SDS011;8311;50.158;8.642;2023-09-08T05:39:18;8.23;;;5.05;;
16403;SDS011;8311;50.158;8.642;2023-09-08T05:42:11;8.05;;;4.78;;
16403;SDS011;8311;50.158;8.642;2023-09-08T05:45:05;7.65;;;4.78;;
16403;SDS011;8311;50.158;8.642;2023-09-08T05:48:00;9.13;;;4.72;;
16403;SDS011;8311;50.158;8.642;2023-09-08T05:50:54;7.45;;;4.95;;
16403;SDS011;8311;50.158;8.642;2023-09-08T05:53:47;8.20;;;4.95;;
16403;SDS011;8311;50.158;8.642;2023-09-08T05:56:41;9.20;;;5.68;;
16403;SDS011;8311;50.158;8.642;2023-09-08T05:59:33;8.45;;;5.85;;
16403;SDS011;8311;50.158;8.642;2023-09-08T06:02:27;11.43;;;5.43;;
16403;SDS011;8311;50.158;8.642;2023-09-08T06:05:22;9.45;;;5.80;;
16403;SDS011;8311;50.158;8.642;2023-09-08T06:08:15;7.32;;;4.82;;
16403;SDS011;8311;50.158;8.642;2023-09-08T06:11:08;8.68;;;4.90;;
16403;SDS011;8311;50.158;8.642;2023-09-08T06:14:02;8.15;;;4.97;;
16403;SDS011;8311;50.158;8.642;2023-09-08T06:16:54;9.75;;;5.47;;
16403;SDS011;8311;50.158;8.642;2023-09-08T06:19:48;8.07;;;5.78;;
16403;SDS011;8311;50.158;8.642;2023-09-08T06:22:43;8.18;;;4.93;;
16403;SDS011;8311;50.158;8.642;2023-09-08T06:25:37;9.38;;;4.90;;
16403;SDS011;8311;50.158;8.642;2023-09-08T06:28:29;11.93;;;5.70;;
16403;SDS011;8311;50.158;8.642;2023-09-08T06:31:23;8.48;;;4.68;;
16403;SDS011;8311;50.158;8.642;2023-09-08T06:34:16;6.68;;;4.97;;
16403;SDS011;8311;50.158;8.642;2023-09-08T06:37:13;6.28;;;4.60;;
16403;SDS011;8311;50.158;8.642;2023-09-08T06:40:07;7.85;;;4.88;;
16403;SDS011;8311;50.158;8.642;2023-09-08T06:43:00;8.55;;;4.97;;
16403;SDS011;8311;50.158;8.642;2023-09-08T06:45:54;9.15;;;4.57;;
16403;SDS011;8311;50.158;8.642;2023-09-08T06:48:48;7.45;;;4.72;;
16403;SDS011;8311;50.158;8.642;2023-09-08T06:51:42;6.78;;;4.50;;
16403;SDS011;8311;50.158;8.642;2023-09-08T06:54:35;7.03;;;4.40;;
16403;SDS011;8311;50.158;8.642;2023-09-08T06:57:29;8.00;;;4.55;;
16403;SDS011;8311;50.158;8.642;2023-09-08T07:00:22;7.65;;;4.43;;
16403;SDS011;8311;50.158;8.642;2023-09-08T07:03:16;6.78;;;4.63;;
16403;SDS011;8311;50.158;8.642;2023-09-08T07:06:10;7.80;;;4.40;;
16403;SDS011;8311;50.158;8.642;2023-09-08T07:09:03;6.95;;;4.40;;
16403;SDS011;8311;50.158;8.642;2023-09-08T07:11:57;7.43;;;4.15;;
16403;SDS011;8311;50.158;8.642;2023-09-08T07:14:51;6.45;;;4.50;;
16403;SDS011;8311;50.158;8.642;2023-09-08T07:17:45;8.77;;;4.85;;
16403;SDS011;8311;50.158;8.642;2023-09-08T07:20:39;6.78;;;4.43;;
16403;SDS011;8311;50.158;8.642;2023-09-08T07:23:32;8.30;;;4.00;;
16403;SDS011;8311;50.158;8.642;2023-09-08T07:26:27;7.68;;;4.18;;
16403;SDS011;8311;50.158;8.642;2023-09-08T07:29:20;9.05;;;4.70;;
16403;SDS011;8311;50.158;8.642;2023-09-08T07:32:15;9.63;;;4.53;;
16403;SDS011;8311;50.158;8.642;2023-09-08T07:35:08;5.72;;;3.88;;
16403;SDS011;8311;50.158;8.642;2023-09-08T07:38:06;6.00;;;3.90;;
16403;SDS011;8311;50.158;8.642;2023-09-08T07:41:00;7.00;;;4.60;;
16403;SDS011;8311;50.158;8.642;2023-09-08T07:43:54;7.60;;;4.32;;
16403;SDS011;8311;50.158;8.642;2023-09-08T07:46:46;8.27;;;4.50;;
16403;SDS011;8311;50.158;8.642;2023-09-08T07:49:45;7.30;;;4.55;;
16403;SDS011;8311;50.158;8.642;2023-09-08T07:52:40;7.88;;;4.45;;
16403;SDS011;8311;50.158;8.642;2023-09-08T07:55:34;8.50;;;4.70;;
16403;SDS011;8311;50.158;8.642;2023-09-08T07:58:27;8.93;;;4.50;;
16403;SDS011;8311;50.158;8.642;2023-09-08T08:01:19;11.27;;;4.82;;
16403;SDS011;8311;50.158;8.642;2023-09-08T08:04:13;6.10;;;4.45;;
16403;SDS011;8311;50.158;8.642;2023-09-08T08:07:07;6.85;;;4.22;;
16403;SDS011;8311;50.158;8.642;2023-09-08T08:10:00;6.97;;;4.18;;
16403;SDS011;8311;50.158;8.642;2023-09-08T08:12:54;7.38;;;4.20;;
16403;SDS011;8311;50.158;8.642;2023-09-08T08:15:48;11.65;;;4.55;;
16403;SDS011;8311;50.158;8.642;2023-09-08T08:18:41;8.95;;;4.32;;
16403;SDS011;8311;50.158;8.642;2023-09-08T08:21:35;16.58;;;6.25;;
16403;SDS011;8311;50.158;8.642;2023-09-08T08:24:30;29.85;;;7.00;;
16403;SDS011;8311;50.158;8.642;2023-09-08T08:27:24;36.22;;;7.65;;
16403;SDS011;8311;50.158;8.642;2023-09-08T08:30:16;19.40;;;6.85;;
16403;SDS011;8311;50.158;8.642;2023-09-08T08:33:10;19.23;;;5.47;;
16403;SDS011;8311;50.158;8.642;2023-09-08T08:36:04;18.73;;;6.40;;
16403;SDS011;8311;50.158;8.642;2023-09-08T08:38:59;19.85;;;6.40;;
16403;SDS011;8311;50.158;8.642;2023-09-08T08:41:54;14.50;;;5.28;;
16403;SDS011;8311;50.158;8.642;2023-09-08T08:44:48;17.58;;;5.90;;
16403;SDS011;8311;50.158;8.642;2023-09-08T08:47:42;17.30;;;5.95;;
16403;SDS011;8311;50.158;8.642;2023-09-08T08:50:35;24.15;;;6.43;;
16403;SDS011;8311;50.158;8.642;2023-09-08T08:53:33;16.75;;;6.00;;
16403;SDS011;8311;50.158;8.642;2023-09-08T08:56:28;21.63;;;6.18;;
16403;SDS011;8311;50.158;8.642;2023-09-08T08:59:22;13.45;;;5.68;;
16403;SDS011;8311;50.158;8.642;2023-09-08T09:02:16;13.23;;;5.95;;
16403;SDS011;8311;50.158;8.642;2023-09-08T09:05:10;19.40;;;5.72;;
16403;SDS011;8311;50.158;8.642;2023-09-08T09:08:05;18.90;;;5.50;;
16403;SDS011;8311;50.158;8.642;2023-09-08T09:10:59;12.45;;;5.43;;
16403;SDS011;8311;50.158;8.642;2023-09-08T09:13:52;13.32;;;5.32;;
16403;SDS011;8311;50.158;8.642;2023-09-08T09:16:46;11.35;;;4.70;;
16403;SDS011;8311;50.158;8.642;2023-09-08T09:19:39;15.57;;;5.88;;
16403;SDS011;8311;50.158;8.642;2023-09-08T09:22:36;16.38;;;5.80;;
16403;SDS011;8311;50.158;8.642;2023-09-08T09:25:30;11.98;;;4.70;;
16403;SDS011;8311;50.158;8.642;2023-09-08T09:28:25;12.82;;;4.65;;
16403;SDS011;8311;50.158;8.642;2023-09-08T09:31:25;11.70;;;4.32;;
16403;SDS011;8311;50.158;8.642;2023-09-08T09:34:20;10.32;;;5.35;;
16403;SDS011;8311;50.158;8.642;2023-09-08T09:37:13;14.68;;;5.47;;
16403;SDS011;8311;50.158;8.642;2023-09-08T09:40:07;7.97;;;4.95;;
16403;SDS011;8311;50.158;8.642;2023-09-08T09:43:01;9.40;;;4.72;;
16403;SDS011;8311;50.158;8.642;2023-09-08T09:45:56;14.65;;;4.78;;
16403;SDS011;8311;50.158;8.642;2023-09-08T09:48:50;12.63;;;5.28;;
16403;SDS011;8311;50.158;8.642;2023-09-08T09:51:47;11.63;;;5.00;;
16403;SDS011;8311;50.158;8.642;2023-09-08T09:54:42;8.68;;;4.70;;
16403;SDS011;8311;50.158;8.642;2023-09-08T09:57:35;11.73;;;4.65;;
16403;SDS011;8311;50.158;8.642;2023-09-08T10:00:30;8.23;;;4.65;;
16403;SDS011;8311;50.158;8.642;2023-09-08T10:03:25;9.45;;;5.00;;
16403;SDS011;8311;50.158;8.642;2023-09-08T10:06:19;11.35;;;4.70;;
16403;SDS011;8311;50.158;8.642;2023-09-08T10:09:14;9.35;;;4.82;;
16403;SDS011;8311;50.158;8.642;2023-09-08T10:12:12;13.48;;;4.55;;
16403;SDS011;8311;50.158;8.642;2023-09-08T10:15:08;13.15;;;4.40;;
16403;SDS011;8311;50.158;8.642;2023-09-08T10:18:04;9.45;;;4.18;;
16403;SDS011;8311;50.158;8.642;2023-09-08T10:20:58;9.73;;;4.32;;
16403;SDS011;8311;50.158;8.642;2023-09-08T10:23:57;9.82;;;4.45;;
16403;SDS011;8311;50.158;8.642;2023-09-08T10:27:03;7.78;;;3.90;;
16403;SDS011;8311;50.158;8.642;2023-09-08T10:30:00;6.70;;;4.18;;
16403;SDS011;8311;50.158;8.642;2023-09-08T10:32:56;7.78;;;4.20;;
16403;SDS011;8311;50.158;8.642;2023-09-08T10:35:50;8.55;;;4.43;;
16403;SDS011;8311;50.158;8.642;2023-09-08T10:38:44;8.07;;;3.80;;
16403;SDS011;8311;50.158;8.642;2023-09-08T10:41:39;8.57;;;4.90;;
16403;SDS011;8311;50.158;8.642;2023-09-08T10:44:33;8.02;;;4.65;;
16403;SDS011;8311;50.158;8.642;2023-09-08T10:47:30;9.10;;;4.00;;
16403;SDS011;8311;50.158;8.642;2023-09-08T10:50:26;8.60;;;3.95;;
16403;SDS011;8311;50.158;8.642;2023-09-08T10:53:23;6.97;;;3.53;;
16403;SDS011;8311;50.158;8.642;2023-09-08T10:56:19;9.23;;;4.30;;
16403;SDS011;8311;50.158;8.642;2023-09-08T10:59:13;8.85;;;4.20;;
16403;SDS011;8311;50.158;8.642;2023-09-08T11:02:07;5.63;;;3.50;;
16403;SDS011;8311;50.158;8.642;2023-09-08T11:05:21;7.50;;;3.63;;
16403;SDS011;8311;50.158;8.642;2023-09-08T11:08:14;12.23;;;3.90;;
16403;SDS011;8311;50.158;8.642;2023-09-08T11:11:11;6.97;;;4.20;;
16403;SDS011;8311;50.158;8.642;2023-09-08T11:14:04;9.43;;;4.35;;
16403;SDS011;8311;50.158;8.642;2023-09-08T11:17:00;8.05;;;4.57;;
16403;SDS011;8311;50.158;8.642;2023-09-08T11:19:56;7.35;;;4.07;;
16403;SDS011;8311;50.158;8.642;2023-09-08T11:22:50;8.80;;;4.30;;
16403;SDS011;8311;50.158;8.642;2023-09-08T11:25:44;5.72;;;3.85;;
16403;SDS011;8311;50.158;8.642;2023-09-08T11:28:38;7.28;;;3.85;;
16403;SDS011;8311;50.158;8.642;2023-09-08T11:31:32;12.35;;;4.25;;
16403;SDS011;8311;50.158;8.642;2023-09-08T11:34:26;6.85;;;4.30;;
16403;SDS011;8311;50.158;8.642;2023-09-08T11:37:20;9.35;;;4.22;;
16403;SDS011;8311;50.158;8.642;2023-09-08T11:40:13;8.57;;;4.30;;
16403;SDS011;8311;50.158;8.642;2023-09-08T11:43:05;5.93;;;3.80;;
16403;SDS011;8311;50.158;8.642;2023-09-08T11:45:59;6.88;;;4.15;;
16403;SDS011;8311;50.158;8.642;2023-09-08T11:48:52;6.85;;;3.72;;
16403;SDS011;8311;50.158;8.642;2023-09-08T11:51:46;6.03;;;3.75;;
16403;SDS011;8311;50.158;8.642;2023-09-08T11:54:41;9.40;;;3.97;;
16403;SDS011;8311;50.158;8.642;2023-09-08T11:57:55;7.28;;;3.90;;
16403;SDS011;8311;50.158;8.642;2023-09-08T12:00:50;11.55;;;4.35;;
16403;SDS011;8311;50.158;8.642;2023-09-08T12:03:53;7.22;;;3.78;;
16403;SDS011;8311;50.158;8.642;2023-09-08T12:06:47;7.28;;;3.60;;
16403;SDS011;8311;50.158;8.642;2023-09-08T12:09:43;6.78;;;3.53;;
16403;SDS011;8311;50.158;8.642;2023-09-08T12:12:41;6.85;;;3.40;;
16403;SDS011;8311;50.158;8.642;2023-09-08T12:15:35;5.72;;;3.70;;
16403;SDS011;8311;50.158;8.642;2023-09-08T12:18:38;8.25;;;3.92;;
16403;SDS011;8311;50.158;8.642;2023-09-08T12:21:32;6.57;;;4.22;;
16403;SDS011;8311;50.158;8.642;2023-09-08T12:24:48;9.75;;;3.97;;
16403;SDS011;8311;50.158;8.642;2023-09-08T12:27:44;6.22;;;3.95;;
16403;SDS011;8311;50.158;8.642;2023-09-08T12:30:38;6.05;;;3.53;;
16403;SDS011;8311;50.158;8.642;2023-09-08T12:33:32;6.82;;;3.63;;
16403;SDS011;8311;50.158;8.642;2023-09-08T12:36:25;6.47;;;3.90;;
16403;SDS011;8311;50.158;8.642;2023-09-08T12:39:19;6.18;;;3.92;;
16403;SDS011;8311;50.158;8.642;2023-09-08T12:42:13;6.22;;;3.70;;
16403;SDS011;8311;50.158;8.642;2023-09-08T12:45:07;6.63;;;3.90;;
16403;SDS011;8311;50.158;8.642;2023-09-08T12:48:01;8.07;;;3.47;;
16403;SDS011;8311;50.158;8.642;2023-09-08T12:50:55;7.90;;;3.35;;
16403;SDS011;8311;50.158;8.642;2023-09-08T12:53:48;7.22;;;3.42;;
16403;SDS011;8311;50.158;8.642;2023-09-08T12:56:41;5.50;;;3.55;;
16403;SDS011;8311;50.158;8.642;2023-09-08T12:59:35;6.32;;;3.70;;
16403;SDS011;8311;50.158;8.642;2023-09-08T13:02:29;9.07;;;3.67;;
16403;SDS011;8311;50.158;8.642;2023-09-08T13:05:22;7.60;;;3.30;;
16403;SDS011;8311;50.158;8.642;2023-09-08T13:08:15;7.80;;;3.67;;
16403;SDS011;8311;50.158;8.642;2023-09-08T13:11:09;7.35;;;3.45;;
16403;SDS011;8311;50.158;8.642;2023-09-08T13:14:02;6.80;;;3.53;;
16403;SDS011;8311;50.158;8.642;2023-09-08T13:16:56;10.15;;;3.90;;
16403;SDS011;8311;50.158;8.642;2023-09-08T13:19:49;5.45;;;3.55;;
16403;SDS011;8311;50.158;8.642;2023-09-08T13:22:42;6.82;;;3.72;;
16403;SDS011;8311;50.158;8.642;2023-09-08T13:25:36;7.32;;;3.33;;
16403;SDS011;8311;50.158;8.642;2023-09-08T13:28:29;7.22;;;3.10;;
16403;SDS011;8311;50.158;8.642;2023-09-08T13:31:22;7.30;;;3.47;;
16403;SDS011;8311;50.158;8.642;2023-09-08T13:34:17;7.05;;;3.35;;
16403;SDS011;8311;50.158;8.642;2023-09-08T13:37:10;7.72;;;3.50;;
16403;SDS011;8311;50.158;8.642;2023-09-08T13:40:03;5.53;;;3.15;;
16403;SDS011;8311;50.158;8.642;2023-09-08T13:42:57;6.22;;;2.92;;
16403;SDS011;8311;50.158;8.642;2023-09-08T13:45:50;5.32;;;3.10;;
16403;SDS011;8311;50.158;8.642;2023-09-08T13:48:44;7.03;;;3.13;;
16403;SDS011;8311;50.158;8.642;2023-09-08T13:51:40;7.80;;;3.38;;
16403;SDS011;8311;50.158;8.642;2023-09-08T13:54:36;5.03;;;3.28;;
16403;SDS011;8311;50.158;8.642;2023-09-08T13:57:31;6.45;;;3.00;;
16403;SDS011;8311;50.158;8.642;2023-09-08T14:00:26;4.45;;;3.05;;
16403;SDS011;8311;50.158;8.642;2023-09-08T14:03:22;7.20;;;3.40;;
16403;SDS011;8311;50.158;8.642;2023-09-08T14:06:21;7.55;;;2.97;;
16403;SDS011;8311;50.158;8.642;2023-09-08T14:09:23;5.32;;;3.25;;
16403;SDS011;8311;50.158;8.642;2023-09-08T14:12:20;5.45;;;3.03;;
16403;SDS011;8311;50.158;8.642;2023-09-08T14:15:13;6.35;;;3.00;;
16403;SDS011;8311;50.158;8.642;2023-09-08T14:18:08;5.10;;;2.80;;
16403;SDS011;8311;50.158;8.642;2023-09-08T14:21:02;8.50;;;3.75;;
16403;SDS011;8311;50.158;8.642;2023-09-08T14:23:55;5.55;;;2.75;;
16403;SDS011;8311;50.158;8.642;2023-09-08T14:26:49;7.80;;;3.10;;
16403;SDS011;8311;50.158;8.642;2023-09-08T14:29:44;4.97;;;3.08;;
16403;SDS011;8311;50.158;8.642;2023-09-08T14:32:37;4.47;;;2.83;;
16403;SDS011;8311;50.158;8.642;2023-09-08T14:35:31;6.88;;;3.10;;
16403;SDS011;8311;50.158;8.642;2023-09-08T14:38:24;6.95;;;3.20;;
16403;SDS011;8311;50.158;8.642;2023-09-08T14:41:18;5.13;;;3.35;;
16403;SDS011;8311;50.158;8.642;2023-09-08T14:44:12;6.22;;;3.15;;
16403;SDS011;8311;50.158;8.642;2023-09-08T14:47:06;5.15;;;3.35;;
16403;SDS011;8311;50.158;8.642;2023-09-08T14:50:00;7.10;;;3.08;;
16403;SDS011;8311;50.158;8.642;2023-09-08T14:52:54;5.40;;;2.92;;
16403;SDS011;8311;50.158;8.642;2023-09-08T14:55:47;5.10;;;3.00;;
16403;SDS011;8311;50.158;8.642;2023-09-08T14:58:40;5.53;;;3.22;;
16403;SDS011;8311;50.158;8.642;2023-09-08T15:01:34;6.63;;;3.22;;
16403;SDS011;8311;50.158;8.642;2023-09-08T15:04:30;5.53;;;3.28;;
16403;SDS011;8311;50.158;8.642;2023-09-08T15:07:23;6.10;;;3.47;;
16403;SDS011;8311;50.158;8.642;2023-09-08T15:10:18;3.92;;;3.08;;
16403;SDS011;8311;50.158;8.642;2023-09-08T15:13:11;6.20;;;3.17;;
16403;SDS011;8311;50.158;8.642;2023-09-08T15:16:04;6.35;;;3.22;;
16403;SDS011;8311;50.158;8.642;2023-09-08T15:18:58;4.97;;;2.90;;
16403;SDS011;8311;50.158;8.642;2023-09-08T15:21:52;4.45;;;3.13;;
16403;SDS011;8311;50.158;8.642;2023-09-08T15:24:44;5.00;;;2.80;;
16403;SDS011;8311;50.158;8.642;2023-09-08T15:27:38;6.88;;;2.60;;
16403;SDS011;8311;50.158;8.642;2023-09-08T15:30:31;4.50;;;2.80;;
16403;SDS011;8311;50.158;8.642;2023-09-08T15:33:24;6.43;;;3.45;;
16403;SDS011;8311;50.158;8.642;2023-09-08T15:36:19;5.30;;;3.03;;
16403;SDS011;8311;50.158;8.642;2023-09-08T15:39:12;5.05;;;2.78;;
16403;SDS011;8311;50.158;8.642;2023-09-08T15:42:05;4.28;;;2.83;;
16403;SDS011;8311;50.158;8.642;2023-09-08T15:44:58;4.45;;;2.83;;
16403;SDS011;8311;50.158;8.642;2023-09-08T15:47:51;4.90;;;2.63;;
16403;SDS011;8311;50.158;8.642;2023-09-08T15:50:44;4.97;;;3.22;;
16403;SDS011;8311;50.158;8.642;2023-09-08T15:53:38;4.38;;;2.75;;
16403;SDS011;8311;50.158;8.642;2023-09-08T15:56:32;6.22;;;3.10;;
16403;SDS011;8311;50.158;8.642;2023-09-08T15:59:25;4.20;;;2.55;;
16403;SDS011;8311;50.158;8.642;2023-09-08T16:02:18;4.32;;;2.55;;
16403;SDS011;8311;50.158;8.642;2023-09-08T16:05:11;4.75;;;2.80;;
16403;SDS011;8311;50.158;8.642;2023-09-08T16:08:05;4.70;;;3.13;;
16403;SDS011;8311;50.158;8.642;2023-09-08T16:11:01;2.95;;;2.45;;
16403;SDS011;8311;50.158;8.642;2023-09-08T16:13:54;4.88;;;3.10;;
16403;SDS011;8311;50.158;8.642;2023-09-08T16:16:47;5.00;;;2.70;;
16403;SDS011;8311;50.158;8.642;2023-09-08T16:19:40;4.55;;;3.03;;
16403;SDS011;8311;50.158;8.642;2023-09-08T16:22:34;4.82;;;2.90;;
16403;SDS011;8311;50.158;8.642;2023-09-08T16:25:28;3.80;;;2.70;;
16403;SDS011;8311;50.158;8.642;2023-09-08T16:28:24;3.70;;;2.47;;
16403;SDS011;8311;50.158;8.642;2023-09-08T16:31:17;3.53;;;2.55;;
16403;SDS011;8311;50.158;8.642;2023-09-08T16:34:10;5.80;;;2.78;;
16403;SDS011;8311;50.158;8.642;2023-09-08T16:37:03;3.88;;;2.60;;
16403;SDS011;8311;50.158;8.642;2023-09-08T16:39:57;4.68;;;2.70;;
16403;SDS011;8311;50.158;8.642;2023-09-08T16:42:50;4.20;;;2.50;;
16403;SDS011;8311;50.158;8.642;2023-09-08T16:45:44;4.07;;;2.60;;
16403;SDS011;8311;50.158;8.642;2023-09-08T16:48:40;3.97;;;2.55;;
16403;SDS011;8311;50.158;8.642;2023-09-08T16:51:33;4.55;;;2.58;;
16403;SDS011;8311;50.158;8.642;2023-09-08T16:54:26;5.13;;;2.83;;
16403;SDS011;8311;50.158;8.642;2023-09-08T16:57:20;3.92;;;2.60;;
16403;SDS011;8311;50.158;8.642;2023-09-08T17:00:13;4.03;;;2.45;;
16403;SDS011;8311;50.158;8.642;2023-09-08T17:03:08;4.07;;;2.42;;
16403;SDS011;8311;50.158;8.642;2023-09-08T17:06:02;3.55;;;2.50;;
16403;SDS011;8311;50.158;8.642;2023-09-08T17:08:55;3.20;;;2.50;;
16403;SDS011;8311;50.158;8.642;2023-09-08T17:11:48;3.58;;;2.58;;
16403;SDS011;8311;50.158;8.642;2023-09-08T17:14:42;3.90;;;2.63;;
16403;SDS011;8311;50.158;8.642;2023-09-08T17:17:35;3.50;;;2.30;;
16403;SDS011;8311;50.158;8.642;2023-09-08T17:20:29;4.85;;;2.92;;
16403;SDS011;8311;50.158;8.642;2023-09-08T17:23:23;3.47;;;2.30;;
16403;SDS011;8311;50.158;8.642;2023-09-08T17:26:16;3.95;;;2.40;;
16403;SDS011;8311;50.158;8.642;2023-09-08T17:29:09;3.45;;;2.30;;
16403;SDS011;8311;50.158;8.642;2023-09-08T17:32:02;4.90;;;3.05;;
16403;SDS011;8311;50.158;8.642;2023-09-08T17:34:56;3.63;;;2.28;;
16403;SDS011;8311;50.158;8.642;2023-09-08T17:37:51;3.78;;;2.53;;
16403;SDS011;8311;50.158;8.642;2023-09-08T17:40:44;3.33;;;2.05;;
16403;SDS011;8311;50.158;8.642;2023-09-08T17:43:37;3.72;;;2.20;;
16403;SDS011;8311;50.158;8.642;2023-09-08T17:46:31;4.20;;;2.50;;